createdAt,value
2022-07-29T00:04:16.741Z,17.30
2022-07-29T00:09:19.466Z,17.20
2022-07-29T00:14:23.239Z,17.10
2022-07-29T00:19:25.545Z,17.00
2022-07-29T00:24:28.090Z,17.00
2022-07-29T00:29:33.906Z,16.80
2022-07-29T00:34:37.072Z,16.70
2022-07-29T00:39:39.339Z,16.70
2022-07-29T00:44:43.243Z,16.80
2022-07-29T00:49:45.694Z,16.80
2022-07-29T00:54:48.121Z,16.80
2022-07-29T00:59:51.887Z,16.90
2022-07-29T01:04:55.401Z,16.90
2022-07-29T01:09:59.592Z,16.90
2022-07-29T01:15:05.515Z,17.00
2022-07-29T01:20:14.836Z,16.90
2022-07-29T01:25:38.050Z,17.00
2022-07-29T01:30:45.625Z,17.00
2022-07-29T01:35:48.363Z,17.00
2022-07-29T01:40:55.521Z,17.00
2022-07-29T01:46:02.742Z,17.00
2022-07-29T01:51:08.593Z,17.10
2022-07-29T01:56:12.386Z,17.10
2022-07-29T02:01:18.657Z,17.20
2022-07-29T02:06:24.510Z,17.20
2022-07-29T02:11:27.373Z,17.20
2022-07-29T02:16:33.749Z,17.20
2022-07-29T02:21:37.066Z,17.10
2022-07-29T02:26:42.721Z,17.10
2022-07-29T02:31:49.209Z,17.10
2022-07-29T02:36:53.360Z,17.20
2022-07-29T02:42:02.301Z,17.10
2022-07-29T02:47:14.631Z,17.10
2022-07-29T02:52:23.075Z,17.10
2022-07-29T02:57:33.544Z,17.20
2022-07-29T03:02:41.737Z,17.20
2022-07-29T03:07:48.492Z,17.20
2022-07-29T03:12:51.656Z,17.20
2022-07-29T03:17:55.624Z,17.20
2022-07-29T03:22:57.920Z,17.30
2022-07-29T03:28:01.143Z,17.20
2022-07-29T03:33:10.231Z,17.30
2022-07-29T03:38:16.428Z,17.30
2022-07-29T03:43:20.195Z,17.30
2022-07-29T03:48:26.438Z,17.30
2022-07-29T03:53:29.137Z,17.30
2022-07-29T03:58:32.707Z,17.30
2022-07-29T04:03:36.979Z,17.30
2022-07-29T04:08:39.701Z,17.30
2022-07-29T04:13:42.030Z,17.30
2022-07-29T04:18:45.844Z,17.30
2022-07-29T04:23:53.663Z,17.20
2022-07-29T04:28:56.415Z,17.20
2022-07-29T04:34:00.249Z,17.10
2022-07-29T04:39:02.872Z,17.10
2022-07-29T04:44:05.597Z,17.10
2022-07-29T04:49:10.738Z,17.10
2022-07-29T04:54:13.445Z,17.10
2022-07-29T04:59:16.271Z,17.10
2022-07-29T05:04:20.622Z,17.20
2022-07-29T05:09:23.531Z,17.20
2022-07-29T05:14:27.001Z,17.30
2022-07-29T05:19:30.829Z,17.30
2022-07-29T05:24:33.188Z,17.30
2022-07-29T05:29:44.439Z,17.40
2022-07-29T05:34:50.762Z,17.50
2022-07-29T05:39:56.515Z,17.60
2022-07-29T05:44:59.789Z,17.60
2022-07-29T05:50:04.007Z,17.70
2022-07-29T05:55:07.424Z,17.70
2022-07-29T06:00:11.429Z,17.80
2022-07-29T06:05:16.291Z,17.90
2022-07-29T06:10:20.082Z,18.00
2022-07-29T06:15:26.601Z,18.00
2022-07-29T06:20:31.521Z,18.10
2022-07-29T06:25:34.435Z,18.20
2022-07-29T06:30:37.111Z,18.30
2022-07-29T06:35:42.724Z,18.50
2022-07-29T06:40:56.025Z,18.70
2022-07-29T06:45:59.728Z,18.90
2022-07-29T06:51:04.269Z,19.10
2022-07-29T06:56:08.109Z,19.20
2022-07-29T07:01:10.692Z,19.30
2022-07-29T07:06:17.821Z,19.40
2022-07-29T07:11:42.721Z,19.60
2022-07-29T07:16:45.440Z,19.90
2022-07-29T07:21:49.469Z,20.00
2022-07-29T07:26:52.102Z,20.20
2022-07-29T07:31:58.945Z,20.30
2022-07-29T07:37:04.978Z,20.60
2022-07-29T07:42:07.612Z,21.00
2022-07-29T07:47:12.545Z,21.30
2022-07-29T07:52:17.831Z,21.40
2022-07-29T07:57:20.362Z,21.50
2022-07-29T08:02:22.758Z,21.60
2022-07-29T08:07:26.663Z,21.80
2022-07-29T08:12:29.101Z,22.30
2022-07-29T08:17:31.552Z,22.90
2022-07-29T08:22:39.529Z,23.50
2022-07-29T08:27:43.862Z,24.00
2022-07-29T08:32:54.319Z,24.70
2022-07-29T08:37:58.813Z,25.10
2022-07-29T08:43:06.765Z,25.40
2022-07-29T08:48:10.134Z,25.70
2022-07-29T08:53:15.749Z,26.20
2022-07-29T08:58:22.961Z,26.70
2022-07-29T09:03:32.410Z,27.00
2022-07-29T09:08:36.570Z,27.00
2022-07-29T09:13:39.070Z,26.90
2022-07-29T09:18:43.051Z,26.60
2022-07-29T09:24:05.623Z,26.40
2022-07-29T09:29:12.223Z,26.30
2022-07-29T09:34:17.464Z,26.10
2022-07-29T09:39:31.963Z,26.00
2022-07-29T09:44:45.948Z,26.10
2022-07-29T09:49:57.568Z,26.20
2022-07-29T09:55:09.033Z,26.30
2022-07-29T10:00:14.304Z,26.20
2022-07-29T10:05:22.768Z,26.30
2022-07-29T10:10:28.931Z,26.20
2022-07-29T10:15:34.053Z,26.10
2022-07-29T10:20:37.033Z,25.90
2022-07-29T10:25:46.020Z,26.10
2022-07-29T10:30:51.653Z,26.40
2022-07-29T10:36:16.235Z,26.80
2022-07-29T10:41:43.837Z,27.20
2022-07-29T10:46:47.772Z,27.40
2022-07-29T10:52:01.516Z,27.80
2022-07-29T10:57:15.137Z,28.20
2022-07-29T11:02:44.845Z,28.70
2022-07-29T11:08:26.368Z,28.70
2022-07-29T11:13:51.472Z,28.50
2022-07-29T11:19:29.774Z,28.60
2022-07-29T11:24:34.898Z,28.60
2022-07-29T11:29:41.535Z,28.40
2022-07-29T11:34:45.688Z,28.10
2022-07-29T11:40:10.004Z,27.80
2022-07-29T11:45:42.624Z,27.70
2022-07-29T11:56:09.497Z,27.40
2022-07-29T12:01:18.807Z,27.30
2022-07-29T12:06:21.949Z,27.40
2022-07-29T12:07:03.198Z,27.50
2022-07-29T12:11:26.296Z,27.50
2022-07-29T12:16:40.340Z,27.70
2022-07-29T12:21:53.619Z,27.80
2022-07-29T12:27:02.657Z,27.80
2022-07-29T12:32:14.538Z,27.70
2022-07-29T12:37:40.956Z,27.40
2022-07-29T12:43:12.119Z,27.20
2022-07-29T12:48:17.598Z,26.90
2022-07-29T12:53:20.137Z,26.70
2022-07-29T12:58:33.573Z,26.50
2022-07-29T13:03:57.014Z,26.30
2022-07-29T13:09:02.453Z,26.10
2022-07-29T13:14:07.139Z,25.90
2022-07-29T13:19:14.775Z,25.80
2022-07-29T13:24:19.993Z,25.70
2022-07-29T13:29:22.714Z,25.60
2022-07-29T13:34:27.922Z,25.70
2022-07-29T13:39:30.289Z,25.80
2022-07-29T13:44:32.712Z,25.90
2022-07-29T13:49:38.676Z,26.10
2022-07-29T13:54:42.534Z,26.30
2022-07-29T13:59:46.164Z,26.50
2022-07-29T14:04:51.369Z,26.50
2022-07-29T14:09:53.742Z,26.60
2022-07-29T14:14:56.117Z,26.60
2022-07-29T14:19:59.960Z,26.70
2022-07-29T14:25:13.082Z,26.80
2022-07-29T14:30:18.023Z,26.90
2022-07-29T14:35:21.864Z,26.90
2022-07-29T14:40:24.311Z,27.00
2022-07-29T14:45:26.747Z,27.00
2022-07-29T14:50:31.825Z,27.10
2022-07-29T14:55:34.768Z,27.10
2022-07-29T15:00:37.173Z,27.20
2022-07-29T15:05:41.023Z,27.20
2022-07-29T15:10:43.461Z,27.30
2022-07-29T15:15:46.004Z,27.30
2022-07-29T15:20:51.282Z,27.30
2022-07-29T15:25:54.027Z,27.30
2022-07-29T15:30:56.369Z,27.20
2022-07-29T15:36:00.934Z,27.20
2022-07-29T15:41:03.445Z,27.10
2022-07-29T15:46:06.152Z,27.00
2022-07-29T15:51:10.081Z,26.90
2022-07-29T15:56:12.503Z,26.80
2022-07-29T16:01:15.075Z,26.70
2022-07-29T16:06:19.051Z,26.70
2022-07-29T16:11:21.587Z,26.70
2022-07-29T16:16:23.994Z,26.70
2022-07-29T16:21:27.797Z,26.60
2022-07-29T16:26:30.348Z,26.60
2022-07-29T16:31:32.872Z,26.50
2022-07-29T16:36:36.768Z,26.40
2022-07-29T16:41:39.229Z,26.40
2022-07-29T16:46:44.643Z,26.20
2022-07-29T16:51:48.481Z,26.20
2022-07-29T16:56:50.869Z,26.10
2022-07-29T17:01:53.465Z,26.00
2022-07-29T17:06:58.318Z,26.00
2022-07-29T17:12:01.052Z,26.00
2022-07-29T17:17:03.567Z,26.00
2022-07-29T17:22:13.088Z,26.10
2022-07-29T17:27:18.586Z,26.10
2022-07-29T17:32:21.479Z,26.10
2022-07-29T17:37:25.452Z,26.00
2022-07-29T17:42:27.846Z,26.00
2022-07-29T17:47:30.475Z,25.90
2022-07-29T17:52:34.572Z,25.70
2022-07-29T17:57:37.166Z,25.70
2022-07-29T18:02:39.653Z,25.60
2022-07-29T18:07:43.566Z,25.60
2022-07-29T18:12:45.988Z,25.60
2022-07-29T18:17:56.776Z,25.70
2022-07-29T18:23:01.881Z,25.60
2022-07-29T18:28:05.436Z,25.60
2022-07-29T18:33:23.417Z,25.60
2022-07-29T18:38:27.355Z,25.50
2022-07-29T18:43:29.883Z,25.50
2022-07-29T18:48:32.793Z,25.50
2022-07-29T18:53:37.059Z,25.50
2022-07-29T18:58:39.561Z,25.40
2022-07-29T19:03:42.127Z,25.40
2022-07-29T19:08:46.170Z,25.30
2022-07-29T19:13:48.561Z,25.20
2022-07-29T19:18:50.947Z,25.10
2022-07-29T19:24:06.059Z,24.90
2022-07-29T19:29:11.191Z,24.70
2022-07-29T19:34:13.989Z,24.60
2022-07-29T19:39:18.220Z,24.50
2022-07-29T19:44:37.441Z,24.40
2022-07-29T19:49:40.026Z,24.40
2022-07-29T19:54:43.972Z,24.40
2022-07-29T19:59:46.703Z,24.30
2022-07-29T20:04:49.112Z,24.20
2022-07-29T20:09:53.475Z,24.20
2022-07-29T20:14:56.159Z,24.10
2022-07-29T20:19:58.710Z,24.00
2022-07-29T20:25:02.509Z,24.00
2022-07-29T20:30:06.712Z,23.90
2022-07-29T20:35:10.735Z,23.80
2022-07-29T20:40:14.725Z,23.70
2022-07-29T20:45:17.361Z,23.60
2022-07-29T20:50:20.657Z,23.40
2022-07-29T20:55:28.022Z,23.30
2022-07-29T21:00:30.771Z,23.20
2022-07-29T21:05:33.175Z,23.00
2022-07-29T21:10:37.130Z,22.90
2022-07-29T21:15:39.683Z,22.80
2022-07-29T21:20:42.267Z,22.80
2022-07-29T21:25:46.221Z,22.80
2022-07-29T21:30:48.599Z,22.70
2022-07-29T21:41:15.544Z,22.70
2022-07-29T21:46:18.383Z,22.60
2022-07-29T21:51:20.907Z,22.60
2022-07-29T21:56:27.806Z,22.50
2022-07-29T22:01:38.940Z,22.40
2022-07-29T22:06:41.812Z,22.30
2022-07-29T22:11:45.857Z,22.20
2022-07-29T22:16:48.967Z,22.10
2022-07-29T22:21:51.605Z,22.10
2022-07-29T22:26:55.873Z,22.00
2022-07-29T22:31:58.504Z,21.90
2022-07-29T22:37:01.290Z,21.90
2022-07-29T22:42:05.858Z,21.90
2022-07-29T22:47:08.458Z,21.80
2022-07-29T22:52:10.937Z,21.80
2022-07-29T22:57:14.740Z,21.70
2022-07-29T23:02:17.073Z,21.70
2022-07-29T23:07:19.456Z,21.70
2022-07-29T23:12:23.468Z,21.60
2022-07-29T23:17:26.007Z,21.60
2022-07-29T23:22:28.436Z,21.60
2022-07-29T23:27:32.507Z,21.60
2022-07-29T23:32:35.006Z,21.60
2022-07-29T23:37:37.510Z,21.60
2022-07-29T23:42:42.455Z,21.60
2022-07-29T23:47:44.851Z,21.50
2022-07-29T23:52:47.218Z,21.50
2022-07-29T23:57:51.235Z,21.40
